Time;durP1;ratioP1;P1;durP2;ratioP2;P2;SDS_P1;SDS_P2;PMS_P1;PMS_P2;Temp;Humidity;BMP_temperature;BMP_pressure;BME280_temperature;BME280_humidity;BME280_pressure;Samples;Min_cycle;Max_cycle;Signal;HPM_P1;HPM_P2
2023/10/14 00:01:11;;;;;;;9.40;3.08;;;;;;;;;;4976207;28;20054;-73
2023/10/14 00:03:41;;;;;;;5.65;2.60;;;;;;;;;;4976972;28;20142;-73
2023/10/14 00:06:07;;;;;;;6.63;2.65;;;;;;;;;;4978616;28;20062;-73
2023/10/14 00:08:34;;;;;;;7.93;3.13;;;;;;;;;;4977491;28;20693;-73
2023/10/14 00:11:05;;;;;;;5.72;2.55;;;;;;;;;;4976740;28;20557;-73
2023/10/14 00:13:32;;;;;;;5.63;2.53;;;;;;;;;;4977171;28;20057;-73
2023/10/14 00:16:01;;;;;;;3.50;2.45;;;;;;;;;;4977264;28;20057;-73
2023/10/14 00:18:27;;;;;;;5.20;2.75;;;;;;;;;;4960452;28;20084;-73
2023/10/14 00:20:54;;;;;;;4.32;2.92;;;;;;;;;;4993373;28;20479;-72
2023/10/14 00:23:23;;;;;;;3.85;2.42;;;;;;;;;;4983383;28;20038;-73
2023/10/14 00:25:49;;;;;;;5.15;2.97;;;;;;;;;;4961563;28;20057;-73
2023/10/14 00:28:15;;;;;;;10.40;3.22;;;;;;;;;;4978461;28;20046;-72
2023/10/14 00:30:40;;;;;;;6.28;2.92;;;;;;;;;;4977577;28;20463;-72
2023/10/14 00:33:06;;;;;;;4.07;2.78;;;;;;;;;;4977201;28;20052;-72
2023/10/14 00:35:32;;;;;;;5.75;2.88;;;;;;;;;;4977846;28;20052;-73
2023/10/14 00:38:03;;;;;;;4.20;2.60;;;;;;;;;;4977137;28;20065;-72
2023/10/14 00:40:28;;;;;;;3.97;2.90;;;;;;;;;;4977600;28;20058;-73
2023/10/14 00:42:56;;;;;;;5.70;2.65;;;;;;;;;;4993373;28;20297;-73
2023/10/14 00:45:21;;;;;;;10.02;2.85;;;;;;;;;;4976116;28;20046;-73
2023/10/14 00:47:48;;;;;;;6.82;2.95;;;;;;;;;;4979740;28;20419;-73
2023/10/14 00:52:59;;;;;;;6.43;3.05;;;;;;;;;;4980512;28;20053;-72
2023/10/14 00:55:35;;;;;;;11.60;2.95;;;;;;;;;;4979343;28;20061;-73
2023/10/14 00:58:01;;;;;;;5.80;2.53;;;;;;;;;;4980997;28;20145;-72
2023/10/14 01:00:45;;;;;;;7.18;2.80;;;;;;;;;;4980150;28;20129;-73
2023/10/14 01:03:15;;;;;;;6.90;2.75;;;;;;;;;;4980641;28;20070;-72
2023/10/14 01:05:40;;;;;;;5.90;3.08;;;;;;;;;;4979895;28;20445;-72
2023/10/14 01:08:11;;;;;;;5.38;2.78;;;;;;;;;;4995738;28;20064;-72
2023/10/14 01:10:41;;;;;;;5.32;2.38;;;;;;;;;;4996435;28;20046;-72
2023/10/14 01:13:13;;;;;;;3.78;2.53;;;;;;;;;;4981164;28;20061;-74
2023/10/14 01:15:43;;;;;;;7.32;3.22;;;;;;;;;;4964977;28;20081;-75
2023/10/14 01:18:11;;;;;;;6.25;2.95;;;;;;;;;;4995189;28;20061;-73
2023/10/14 01:20:39;;;;;;;6.65;2.05;;;;;;;;;;4981826;28;20118;-73
2023/10/14 01:23:08;;;;;;;6.65;2.53;;;;;;;;;;4980834;28;20038;-75
2023/10/14 01:25:41;;;;;;;12.27;2.70;;;;;;;;;;4980155;28;20054;-74
2023/10/14 01:28:12;;;;;;;7.13;2.50;;;;;;;;;;4980022;28;20166;-73
2023/10/14 01:30:55;;;;;;;7.68;2.70;;;;;;;;;;4979321;28;20050;-73
2023/10/14 01:33:25;;;;;;;5.07;2.38;;;;;;;;;;4979407;28;20523;-73
2023/10/14 01:35:53;;;;;;;6.05;2.53;;;;;;;;;;4990586;28;20129;-74
2023/10/14 01:38:19;;;;;;;5.50;2.40;;;;;;;;;;4981746;28;20081;-73
2023/10/14 01:40:49;;;;;;;8.10;2.58;;;;;;;;;;4980491;28;20813;-73
2023/10/14 01:43:15;;;;;;;9.40;2.72;;;;;;;;;;4957570;28;20085;-73
2023/10/14 01:48:21;;;;;;;4.05;2.13;;;;;;;;;;4981272;28;20050;-74
2023/10/14 01:50:55;;;;;;;6.78;2.72;;;;;;;;;;4981147;28;20674;-73
2023/10/14 01:53:23;;;;;;;10.02;2.70;;;;;;;;;;4979011;28;20088;-74
2023/10/14 01:55:52;;;;;;;4.93;2.38;;;;;;;;;;4979611;28;20133;-73
2023/10/14 01:58:22;;;;;;;4.43;2.40;;;;;;;;;;4979505;28;20126;-72
2023/10/14 02:00:56;;;;;;;6.53;2.97;;;;;;;;;;4988892;28;20693;-72
2023/10/14 02:03:23;;;;;;;8.57;2.65;;;;;;;;;;4980141;28;20046;-73
2023/10/14 02:05:52;;;;;;;2.90;2.60;;;;;;;;;;4979680;28;20554;-72
2023/10/14 02:08:21;;;;;;;5.00;2.40;;;;;;;;;;4978161;28;20042;-73
2023/10/14 02:10:51;;;;;;;4.25;2.20;;;;;;;;;;4979120;28;20085;-73
2023/10/14 02:13:18;;;;;;;4.13;2.20;;;;;;;;;;4977678;28;20053;-72
2023/10/14 02:15:46;;;;;;;4.97;2.20;;;;;;;;;;4979119;28;20054;-75
2023/10/14 02:18:20;;;;;;;3.78;2.13;;;;;;;;;;4979646;28;20061;-71
2023/10/14 02:21:04;;;;;;;5.03;1.98;;;;;;;;;;4980582;28;20045;-73
2023/10/14 02:23:43;;;;;;;4.93;2.40;;;;;;;;;;4993372;28;20052;-72
2023/10/14 02:26:24;;;;;;;3.50;2.00;;;;;;;;;;4979087;28;20523;-72
2023/10/14 02:28:54;;;;;;;;;;;;;;;;;;4980129;28;20133;-71
2023/10/14 02:31:43;;;;;;;7.53;1.95;;;;;;;;;;4979457;28;19964;-72
2023/10/14 02:34:09;;;;;;;4.72;2.35;;;;;;;;;;4980591;28;20057;-71
2023/10/14 02:36:48;;;;;;;5.60;2.28;;;;;;;;;;4978982;28;20042;-71
2023/10/14 02:39:14;;;;;;;5.32;2.55;;;;;;;;;;4978688;28;20061;-72
2023/10/14 02:41:43;;;;;;;7.20;2.35;;;;;;;;;;4978549;28;20502;-72
2023/10/14 02:46:42;;;;;;;5.18;2.25;;;;;;;;;;4980513;28;20050;-72
2023/10/14 02:49:14;;;;;;;6.85;2.55;;;;;;;;;;4979139;28;20588;-71
2023/10/14 02:51:43;;;;;;;5.13;3.03;;;;;;;;;;4977099;28;20058;-71
2023/10/14 02:54:26;;;;;;;5.93;2.42;;;;;;;;;;4980030;28;20149;-73
2023/10/14 03:00:00;;;;;;;5.82;2.00;;;;;;;;;;4958785;28;20050;-73
2023/10/14 03:02:27;;;;;;;5.07;2.17;;;;;;;;;;4977931;28;20049;-73
2023/10/14 03:07:25;;;;;;;4.53;2.38;;;;;;;;;;4979111;28;20082;-72
2023/10/14 03:09:51;;;;;;;3.53;2.03;;;;;;;;;;4977420;28;20054;-73
2023/10/14 03:12:21;;;;;;;4.70;2.30;;;;;;;;;;4979298;28;20105;-72
2023/10/14 03:14:52;;;;;;;3.22;2.03;;;;;;;;;;4980055;28;20411;-73
2023/10/14 03:17:28;;;;;;;3.55;1.90;;;;;;;;;;4977209;28;20138;-73
2023/10/14 03:20:34;;;;;;;7.95;3.20;;;;;;;;;;4979962;28;20788;-72
2023/10/14 03:23:03;;;;;;;4.00;2.30;;;;;;;;;;4962737;28;20050;-72
2023/10/14 03:25:29;;;;;;;4.93;2.47;;;;;;;;;;4991388;28;20547;-73
2023/10/14 03:28:06;;;;;;;6.97;2.45;;;;;;;;;;4979463;28;20046;-72
2023/10/14 03:30:31;;;;;;;6.57;2.78;;;;;;;;;;4979224;28;20042;-72
2023/10/14 03:32:57;;;;;;;5.93;2.10;;;;;;;;;;4978612;28;20045;-73
2023/10/14 03:35:27;;;;;;;7.88;2.70;;;;;;;;;;4978276;28;20057;-73
2023/10/14 03:37:54;;;;;;;3.90;2.45;;;;;;;;;;4979208;28;20050;-73
2023/10/14 03:43:10;;;;;;;5.30;2.47;;;;;;;;;;4979103;28;20449;-72
2023/10/14 03:45:47;;;;;;;12.57;2.92;;;;;;;;;;4975678;28;20065;-73
2023/10/14 03:48:13;;;;;;;5.13;2.72;;;;;;;;;;4978582;28;20090;-72
2023/10/14 03:50:39;;;;;;;4.15;2.45;;;;;;;;;;4977900;28;20141;-72
2023/10/14 03:53:08;;;;;;;8.73;2.58;;;;;;;;;;4978699;28;20566;-72
2023/10/14 03:55:34;;;;;;;5.53;2.38;;;;;;;;;;4977321;28;20050;-72
2023/10/14 03:58:05;;;;;;;4.60;2.35;;;;;;;;;;4978020;28;20049;-72
2023/10/14 04:00:37;;;;;;;2.97;2.13;;;;;;;;;;4977416;28;20499;-72
2023/10/14 04:03:12;;;;;;;2.92;1.85;;;;;;;;;;4977231;28;20535;-75
2023/10/14 04:05:51;;;;;;;3.97;2.38;;;;;;;;;;4977543;28;20236;-74
2023/10/14 04:08:24;;;;;;;4.55;2.25;;;;;;;;;;4977988;28;20803;-74
2023/10/14 04:10:54;;;;;;;9.18;2.10;;;;;;;;;;4977469;28;20052;-75
2023/10/14 04:13:21;;;;;;;5.90;2.30;;;;;;;;;;4977332;28;20435;-71
2023/10/14 04:15:49;;;;;;;16.08;2.30;;;;;;;;;;4978103;28;20058;-72
2023/10/14 04:18:15;;;;;;;5.10;2.47;;;;;;;;;;4977575;28;20056;-72
2023/10/14 04:20:46;;;;;;;5.63;2.50;;;;;;;;;;4979618;28;20046;-75
2023/10/14 04:23:26;;;;;;;3.33;2.20;;;;;;;;;;4982819;28;20046;-71
2023/10/14 04:26:02;;;;;;;3.45;2.20;;;;;;;;;;4980446;28;20046;-72
2023/10/14 04:28:31;;;;;;;3.03;1.90;;;;;;;;;;4982134;28;20467;-74
2023/10/14 04:31:01;;;;;;;3.05;2.05;;;;;;;;;;4981576;28;20038;-71
2023/10/14 04:33:44;;;;;;;4.00;2.20;;;;;;;;;;4981147;28;20089;-73
2023/10/14 04:36:55;;;;;;;5.40;2.15;;;;;;;;;;4982737;28;20038;-73
2023/10/14 04:39:14;;;;;;;3.75;2.08;;;;;;;;;;4977668;28;20066;-73
2023/10/14 04:41:57;;;;;;;3.80;1.95;;;;;;;;;;4979331;28;20654;-72
2023/10/14 04:44:24;;;;;;;2.80;1.95;;;;;;;;;;4981755;28;20077;-74
2023/10/14 04:47:01;;;;;;;3.30;2.10;;;;;;;;;;4981817;28;20062;-74
2023/10/14 04:49:35;;;;;;;8.45;2.42;;;;;;;;;;4979813;28;20085;-73
2023/10/14 04:52:04;;;;;;;8.45;2.63;;;;;;;;;;4981741;28;20038;-73
2023/10/14 04:54:34;;;;;;;8.27;2.50;;;;;;;;;;4981847;28;20313;-73
2023/10/14 04:57:18;;;;;;;4.55;2.25;;;;;;;;;;4949918;28;20052;-74
2023/10/14 04:59:44;;;;;;;3.67;2.17;;;;;;;;;;4980600;28;20073;-74
2023/10/14 05:02:15;;;;;;;7.72;2.50;;;;;;;;;;4981100;28;20137;-72
2023/10/14 05:04:41;;;;;;;5.32;2.20;;;;;;;;;;4979459;28;20137;-74
2023/10/14 05:07:11;;;;;;;7.15;2.30;;;;;;;;;;4981433;28;20137;-74
2023/10/14 05:09:39;;;;;;;8.18;2.53;;;;;;;;;;4979271;28;20050;-74
2023/10/14 05:12:08;;;;;;;4.63;2.38;;;;;;;;;;4980698;28;20044;-73
2023/10/14 05:14:36;;;;;;;5.47;3.08;;;;;;;;;;4980397;28;20763;-74
2023/10/14 05:19:41;;;;;;;3.20;2.33;;;;;;;;;;4976495;28;20954;-75
2023/10/14 05:22:23;;;;;;;4.63;2.40;;;;;;;;;;4976602;28;20112;-74
2023/10/14 05:24:49;;;;;;;;;;;;;;;;;;4977248;28;20862;-73
2023/10/14 05:27:19;;;;;;;4.10;2.28;;;;;;;;;;4950170;28;20060;-74
2023/10/14 05:29:51;;;;;;;7.93;2.25;;;;;;;;;;4978938;28;20054;-74
2023/10/14 05:32:23;;;;;;;6.35;2.60;;;;;;;;;;4977505;28;20133;-75
2023/10/14 05:34:50;;;;;;;5.22;2.90;;;;;;;;;;4979320;28;20042;-74
2023/10/14 05:37:16;;;;;;;6.97;2.65;;;;;;;;;;4980082;28;20038;-75
2023/10/14 05:39:42;;;;;;;5.63;2.20;;;;;;;;;;4976191;28;20059;-75
2023/10/14 05:42:16;;;;;;;6.30;2.63;;;;;;;;;;4979282;28;20089;-73
2023/10/14 05:44:48;;;;;;;4.57;1.77;;;;;;;;;;4979175;28;20077;-74
2023/10/14 05:47:15;;;;;;;2.67;2.00;;;;;;;;;;4980035;28;20050;-74
2023/10/14 05:49:41;;;;;;;5.22;2.33;;;;;;;;;;4977561;28;20100;-75
2023/10/14 05:52:08;;;;;;;6.07;3.47;;;;;;;;;;4974514;28;20121;-76
2023/10/14 05:54:34;;;;;;;4.07;2.00;;;;;;;;;;4975787;28;20136;-74
2023/10/14 05:57:00;;;;;;;6.85;2.47;;;;;;;;;;4978608;28;21006;-75
2023/10/14 05:59:25;;;;;;;2.83;2.20;;;;;;;;;;4977473;28;20053;-77
2023/10/14 06:01:51;;;;;;;4.78;2.40;;;;;;;;;;4993956;28;20053;-74
2023/10/14 06:04:17;;;;;;;6.05;2.42;;;;;;;;;;4978583;28;20065;-75
2023/10/14 06:06:43;;;;;;;6.63;2.28;;;;;;;;;;4978025;28;20086;-74
2023/10/14 06:09:09;;;;;;;6.20;2.58;;;;;;;;;;4977959;28;20050;-74
2023/10/14 06:11:36;;;;;;;3.47;2.45;;;;;;;;;;4977733;28;20184;-74
2023/10/14 06:14:05;;;;;;;7.47;2.45;;;;;;;;;;4977741;28;20054;-74
2023/10/14 06:16:33;;;;;;;7.50;2.13;;;;;;;;;;4977737;28;20089;-74
2023/10/14 06:19:04;;;;;;;6.03;2.55;;;;;;;;;;4976834;28;20551;-74
2023/10/14 06:21:33;;;;;;;3.78;2.55;;;;;;;;;;4977943;28;20727;-74
2023/10/14 06:24:00;;;;;;;7.88;2.50;;;;;;;;;;4978045;28;20042;-74
2023/10/14 06:26:26;;;;;;;5.85;2.58;;;;;;;;;;4978392;28;20443;-74
2023/10/14 06:28:56;;;;;;;3.50;2.13;;;;;;;;;;4978503;28;20097;-75
2023/10/14 06:31:23;;;;;;;4.28;2.65;;;;;;;;;;4977477;28;20046;-76
2023/10/14 06:33:48;;;;;;;3.05;2.50;;;;;;;;;;4977254;28;20054;-76
2023/10/14 06:36:14;;;;;;;4.95;2.22;;;;;;;;;;4977756;28;20050;-76
2023/10/14 06:38:46;;;;;;;3.90;2.45;;;;;;;;;;4978048;28;20081;-76
2023/10/14 06:41:17;;;;;;;3.40;2.40;;;;;;;;;;4976735;28;20145;-75
2023/10/14 06:43:43;;;;;;;3.08;2.40;;;;;;;;;;4975368;28;20173;-76
2023/10/14 06:46:11;;;;;;;4.60;2.50;;;;;;;;;;4977163;28;20046;-76
2023/10/14 06:48:38;;;;;;;6.65;2.40;;;;;;;;;;4978502;28;20196;-76
2023/10/14 06:51:09;;;;;;;5.72;2.80;;;;;;;;;;4978076;28;20042;-75
2023/10/14 06:53:35;;;;;;;4.18;2.45;;;;;;;;;;4979630;28;20038;-74
2023/10/14 06:56:01;;;;;;;5.15;2.78;;;;;;;;;;4974992;28;20887;-74
2023/10/14 06:58:28;;;;;;;3.13;2.15;;;;;;;;;;4969703;28;20499;-75
2023/10/14 07:00:57;;;;;;;3.88;2.38;;;;;;;;;;4976270;28;20042;-75
2023/10/14 07:03:22;;;;;;;5.30;2.60;;;;;;;;;;4977332;28;20451;-75
2023/10/14 07:05:50;;;;;;;9.05;2.42;;;;;;;;;;4969552;28;20050;-75
2023/10/14 07:08:19;;;;;;;7.72;2.95;;;;;;;;;;4971707;28;20141;-75
2023/10/14 07:10:47;;;;;;;7.22;2.67;;;;;;;;;;4958726;28;20053;-74
2023/10/14 07:13:13;;;;;;;6.88;2.60;;;;;;;;;;4961437;28;20054;-75
2023/10/14 07:15:41;;;;;;;5.25;2.70;;;;;;;;;;4971250;28;20054;-75
2023/10/14 07:18:08;;;;;;;5.32;2.50;;;;;;;;;;4966325;28;20073;-75
2023/10/14 07:20:34;;;;;;;5.05;2.35;;;;;;;;;;4988218;28;20064;-75
2023/10/14 07:23:00;;;;;;;3.50;2.75;;;;;;;;;;4975102;28;20414;-75
2023/10/14 07:25:30;;;;;;;9.45;2.90;;;;;;;;;;4974175;28;20878;-75
2023/10/14 07:27:59;;;;;;;2.67;2.28;;;;;;;;;;4973089;28;20485;-75
2023/10/14 07:30:27;;;;;;;7.30;2.70;;;;;;;;;;4975437;28;20046;-75
2023/10/14 07:32:54;;;;;;;4.35;2.70;;;;;;;;;;4975922;28;21089;-75
2023/10/14 07:35:21;;;;;;;5.72;2.83;;;;;;;;;;4974562;28;21239;-76
2023/10/14 07:37:48;;;;;;;4.55;3.00;;;;;;;;;;4972699;28;20077;-75
2023/10/14 07:40:24;;;;;;;5.43;3.10;;;;;;;;;;4958425;28;20046;-76
2023/10/14 07:43:05;;;;;;;5.00;3.35;;;;;;;;;;4974584;28;20103;-75
2023/10/14 07:45:33;;;;;;;20.17;3.05;;;;;;;;;;4972295;28;20403;-77
2023/10/14 07:48:08;;;;;;;7.25;3.30;;;;;;;;;;4974063;28;20066;-75
2023/10/14 07:50:35;;;;;;;18.90;4.13;;;;;;;;;;4975043;28;20077;-75
2023/10/14 07:53:07;;;;;;;7.80;2.92;;;;;;;;;;4958727;28;20153;-75
2023/10/14 07:55:49;;;;;;;15.10;3.30;;;;;;;;;;4974397;28;20054;-75
2023/10/14 07:58:18;;;;;;;17.50;3.38;;;;;;;;;;4973103;28;20041;-76
2023/10/14 08:00:50;;;;;;;9.02;2.80;;;;;;;;;;4974437;28;20499;-76
2023/10/14 08:03:20;;;;;;;11.40;3.00;;;;;;;;;;4975654;28;20132;-76
2023/10/14 08:06:09;;;;;;;5.57;2.75;;;;;;;;;;4971374;28;20054;-76
2023/10/14 08:08:42;;;;;;;5.55;2.78;;;;;;;;;;4959850;28;20049;-76
2023/10/14 08:11:08;;;;;;;6.63;2.42;;;;;;;;;;4975905;28;20058;-75
2023/10/14 08:13:34;;;;;;;5.03;2.90;;;;;;;;;;4974017;28;20144;-76
2023/10/14 08:15:59;;;;;;;9.68;3.15;;;;;;;;;;4977044;28;20050;-77
2023/10/14 08:18:25;;;;;;;5.00;2.67;;;;;;;;;;4975465;28;20054;-77
2023/10/14 08:20:55;;;;;;;3.88;2.20;;;;;;;;;;4973283;28;20046;-80
2023/10/14 08:23:25;;;;;;;4.88;2.35;;;;;;;;;;4976384;28;20165;-76
2023/10/14 08:25:54;;;;;;;7.60;2.72;;;;;;;;;;4977798;28;20042;-79
2023/10/14 08:28:23;;;;;;;4.15;2.35;;;;;;;;;;4977731;28;20157;-78
2023/10/14 08:30:52;;;;;;;2.65;2.00;;;;;;;;;;4975094;28;20472;-78
2023/10/14 08:33:24;;;;;;;3.78;2.30;;;;;;;;;;4978152;28;20046;-78
2023/10/14 08:35:51;;;;;;;3.53;2.20;;;;;;;;;;4975752;28;20053;-80
2023/10/14 08:38:21;;;;;;;4.80;2.42;;;;;;;;;;4977785;28;20485;-77
2023/10/14 08:40:54;;;;;;;8.30;2.00;;;;;;;;;;4976400;28;20144;-76
2023/10/14 08:43:22;;;;;;;4.88;1.80;;;;;;;;;;4976124;28;20053;-76
2023/10/14 08:45:48;;;;;;;3.95;2.13;;;;;;;;;;4977040;28;20049;-76
2023/10/14 08:48:19;;;;;;;7.65;2.03;;;;;;;;;;4978690;28;20052;-80
2023/10/14 08:50:47;;;;;;;3.47;1.50;;;;;;;;;;4979032;28;20117;-79
2023/10/14 08:53:15;;;;;;;6.55;1.75;;;;;;;;;;4976883;28;20058;-76
2023/10/14 08:55:44;;;;;;;9.55;1.92;;;;;;;;;;4977811;28;20522;-75
2023/10/14 08:58:13;;;;;;;3.55;2.33;;;;;;;;;;4993102;28;20057;-75
2023/10/14 09:00:41;;;;;;;5.63;2.03;;;;;;;;;;4975721;28;20077;-76
2023/10/14 09:03:09;;;;;;;2.38;1.83;;;;;;;;;;4992185;28;20049;-78
2023/10/14 09:05:44;;;;;;;4.90;2.15;;;;;;;;;;4976870;28;21501;-77
2023/10/14 09:08:16;;;;;;;3.08;1.83;;;;;;;;;;4979205;28;20046;-74
2023/10/14 09:10:43;;;;;;;4.47;2.72;;;;;;;;;;4992337;28;20112;-76
2023/10/14 09:13:11;;;;;;;4.38;2.00;;;;;;;;;;4979663;28;20042;-76
2023/10/14 09:15:43;;;;;;;7.38;2.35;;;;;;;;;;4978011;28;20081;-77
2023/10/14 09:18:14;;;;;;;2.15;1.95;;;;;;;;;;4978545;28;20097;-75
2023/10/14 09:20:41;;;;;;;6.78;2.35;;;;;;;;;;4978956;28;20152;-76
2023/10/14 09:23:17;;;;;;;3.00;2.03;;;;;;;;;;4978692;28;20050;-77
2023/10/14 09:25:50;;;;;;;5.57;2.45;;;;;;;;;;4962654;28;20056;-77
2023/10/14 09:28:19;;;;;;;5.53;2.13;;;;;;;;;;4973917;28;20042;-75
2023/10/14 09:30:44;;;;;;;5.28;2.63;;;;;;;;;;4977553;28;20072;-77
2023/10/14 09:33:15;;;;;;;5.57;2.13;;;;;;;;;;4980160;28;20058;-77
2023/10/14 09:35:43;;;;;;;5.25;2.28;;;;;;;;;;4978632;28;20077;-76
2023/10/14 09:38:11;;;;;;;5.00;2.03;;;;;;;;;;4979185;28;20128;-75
2023/10/14 09:40:36;;;;;;;5.93;2.65;;;;;;;;;;4981179;28;20038;-76
2023/10/14 09:43:03;;;;;;;4.97;2.20;;;;;;;;;;4982179;28;20124;-76
2023/10/14 09:45:29;;;;;;;9.25;2.08;;;;;;;;;;4981101;28;20579;-76
2023/10/14 09:47:57;;;;;;;4.15;2.25;;;;;;;;;;4982052;28;20038;-74
2023/10/14 09:50:24;;;;;;;4.50;2.03;;;;;;;;;;4979146;28;20046;-74
2023/10/14 09:52:52;;;;;;;4.38;2.47;;;;;;;;;;4982060;28;20121;-77
2023/10/14 09:55:20;;;;;;;2.90;1.80;;;;;;;;;;4980757;28;20065;-74
2023/10/14 09:57:47;;;;;;;1.77;1.48;;;;;;;;;;4980345;28;20046;-75
2023/10/14 10:00:16;;;;;;;7.15;2.17;;;;;;;;;;4972457;28;20046;-75
2023/10/14 10:02:44;;;;;;;11.48;2.42;;;;;;;;;;4981898;28;20046;-75
2023/10/14 10:05:15;;;;;;;4.22;2.15;;;;;;;;;;4980569;28;20133;-74
2023/10/14 10:08:07;;;;;;;6.90;2.53;;;;;;;;;;4978960;28;20058;-74
2023/10/14 10:10:33;;;;;;;2.53;2.08;;;;;;;;;;4980225;28;20676;-76
2023/10/14 10:13:00;;;;;;;3.88;2.20;;;;;;;;;;4977471;28;20046;-74
2023/10/14 10:15:26;;;;;;;4.15;2.40;;;;;;;;;;4977371;28;20066;-74
2023/10/14 10:18:06;;;;;;;5.47;2.60;;;;;;;;;;4979169;28;20050;-75
2023/10/14 10:20:36;;;;;;;1.95;1.73;;;;;;;;;;4962317;28;20046;-76
2023/10/14 10:23:02;;;;;;;5.07;2.60;;;;;;;;;;4978919;28;20055;-75
2023/10/14 10:25:37;;;;;;;4.82;2.10;;;;;;;;;;4981561;28;20054;-77
2023/10/14 10:28:34;;;;;;;4.40;2.25;;;;;;;;;;4980439;28;20435;-76
2023/10/14 10:31:24;;;;;;;4.80;3.13;;;;;;;;;;4959251;28;20061;-76
2023/10/14 10:33:52;;;;;;;4.72;2.60;;;;;;;;;;4982891;28;20069;-76
2023/10/14 10:36:27;;;;;;;8.82;2.25;;;;;;;;;;4981904;28;20419;-74
2023/10/14 10:38:54;;;;;;;6.38;3.33;;;;;;;;;;4979114;28;20042;-71
2023/10/14 10:41:27;;;;;;;2.65;2.38;;;;;;;;;;4983259;28;20144;-77
2023/10/14 10:44:00;;;;;;;4.72;2.47;;;;;;;;;;4980061;28;20046;-77
2023/10/14 10:46:45;;;;;;;7.05;2.72;;;;;;;;;;4983190;28;20046;-77
2023/10/14 10:49:13;;;;;;;3.65;2.25;;;;;;;;;;4981699;28;20054;-77
2023/10/14 10:52:12;;;;;;;5.97;2.83;;;;;;;;;;4983349;28;20073;-77
2023/10/14 10:54:42;;;;;;;2.88;1.90;;;;;;;;;;4981731;28;20054;-76
2023/10/14 10:57:07;;;;;;;5.47;1.92;;;;;;;;;;4980472;28;20450;-76
2023/10/14 10:59:36;;;;;;;4.15;2.10;;;;;;;;;;4962574;28;20723;-72
2023/10/14 11:02:02;;;;;;;4.80;2.67;;;;;;;;;;4977720;28;20855;-73
2023/10/14 11:04:30;;;;;;;6.45;2.15;;;;;;;;;;4976257;28;20042;-72
2023/10/14 11:06:56;;;;;;;5.75;2.42;;;;;;;;;;4976933;28;20507;-72
2023/10/14 11:09:21;;;;;;;6.13;2.83;;;;;;;;;;4976729;28;20065;-72
2023/10/14 11:11:48;;;;;;;6.95;2.38;;;;;;;;;;4977431;28;20053;-73
2023/10/14 11:14:17;;;;;;;5.32;2.55;;;;;;;;;;4977294;28;20046;-72
2023/10/14 11:16:44;;;;;;;6.35;2.15;;;;;;;;;;4978388;28;20043;-73
2023/10/14 11:19:10;;;;;;;3.47;2.40;;;;;;;;;;4979158;28;20523;-73
2023/10/14 11:21:37;;;;;;;3.08;2.28;;;;;;;;;;4976076;28;20133;-73
2023/10/14 11:24:08;;;;;;;6.32;2.03;;;;;;;;;;4980767;28;20050;-77
2023/10/14 11:26:35;;;;;;;7.93;2.08;;;;;;;;;;4960300;28;20046;-76
2023/10/14 11:29:01;;;;;;;6.50;2.67;;;;;;;;;;4982789;28;20050;-76
2023/10/14 11:31:26;;;;;;;6.50;2.63;;;;;;;;;;4982263;28;20061;-76
2023/10/14 11:33:55;;;;;;;5.20;2.20;;;;;;;;;;4983478;28;20046;-76
2023/10/14 11:36:25;;;;;;;7.32;2.05;;;;;;;;;;4982835;28;20558;-77
2023/10/14 11:38:50;;;;;;;7.40;2.35;;;;;;;;;;4962628;28;20052;-77
2023/10/14 11:41:17;;;;;;;5.72;2.20;;;;;;;;;;4977339;28;20050;-74
2023/10/14 11:43:44;;;;;;;7.05;2.05;;;;;;;;;;4963795;28;20120;-76
2023/10/14 11:46:10;;;;;;;5.55;2.17;;;;;;;;;;4985005;28;20045;-77
2023/10/14 11:48:38;;;;;;;6.38;2.58;;;;;;;;;;4982284;28;20050;-76
2023/10/14 11:51:11;;;;;;;5.10;2.30;;;;;;;;;;4977634;28;20054;-76
2023/10/14 11:53:43;;;;;;;7.55;2.13;;;;;;;;;;4993005;28;20082;-76
2023/10/14 11:56:13;;;;;;;3.30;1.95;;;;;;;;;;4979472;28;20050;-76
2023/10/14 11:58:40;;;;;;;14.68;2.60;;;;;;;;;;4977389;28;20057;-77
2023/10/14 12:01:09;;;;;;;3.17;1.75;;;;;;;;;;4979252;28;20065;-76
2023/10/14 12:03:35;;;;;;;5.55;1.85;;;;;;;;;;4978502;28;20042;-76
2023/10/14 12:06:01;;;;;;;4.25;1.63;;;;;;;;;;4985742;28;20431;-76
2023/10/14 12:08:28;;;;;;;2.60;1.55;;;;;;;;;;4969987;28;20054;-76
2023/10/14 12:10:54;;;;;;;5.38;1.95;;;;;;;;;;4979974;28;20065;-76
2023/10/14 12:13:20;;;;;;;3.17;2.08;;;;;;;;;;4979641;28;20038;-76
2023/10/14 12:15:46;;;;;;;4.15;1.55;;;;;;;;;;4979245;28;20054;-77
2023/10/14 12:18:13;;;;;;;2.25;1.40;;;;;;;;;;4981374;28;20492;-77
2023/10/14 12:20:41;;;;;;;2.15;1.20;;;;;;;;;;4963261;28;20510;-78
2023/10/14 12:23:06;;;;;;;3.30;1.65;;;;;;;;;;4977439;28;20054;-78
2023/10/14 12:25:32;;;;;;;4.63;1.75;;;;;;;;;;4978781;28;20053;-78
2023/10/14 12:27:57;;;;;;;2.80;1.50;;;;;;;;;;4979120;28;20058;-77
2023/10/14 12:30:39;;;;;;;1.83;1.20;;;;;;;;;;4980834;28;20061;-78
2023/10/14 12:33:05;;;;;;;4.35;1.50;;;;;;;;;;4978270;28;20479;-78
2023/10/14 12:35:39;;;;;;;4.10;1.42;;;;;;;;;;4978488;28;20100;-77
2023/10/14 12:38:11;;;;;;;5.20;1.48;;;;;;;;;;4984184;28;20665;-78
2023/10/14 12:40:37;;;;;;;1.98;1.40;;;;;;;;;;4979409;28;20058;-79
2023/10/14 12:43:05;;;;;;;6.65;2.00;;;;;;;;;;4982836;28;20050;-80
2023/10/14 12:45:32;;;;;;;3.15;1.52;;;;;;;;;;4981563;28;20049;-79
2023/10/14 12:48:09;;;;;;;2.83;1.58;;;;;;;;;;4980662;28;20042;-79
2023/10/14 12:50:40;;;;;;;4.95;1.75;;;;;;;;;;4983154;28;20042;-78
2023/10/14 12:53:08;;;;;;;2.10;1.20;;;;;;;;;;4978874;28;20459;-78
2023/10/14 12:55:39;;;;;;;4.63;1.65;;;;;;;;;;4979761;28;20470;-78
2023/10/14 12:58:04;;;;;;;2.30;1.50;;;;;;;;;;4980131;28;20042;-80
2023/10/14 13:00:30;;;;;;;3.85;1.63;;;;;;;;;;4984363;28;20096;-80
2023/10/14 13:03:00;;;;;;;3.28;1.50;;;;;;;;;;4978001;28;20049;-80
2023/10/14 13:05:26;;;;;;;8.20;1.75;;;;;;;;;;4981390;28;20078;-79
2023/10/14 13:07:53;;;;;;;3.90;1.70;;;;;;;;;;4982112;28;20057;-80
2023/10/14 13:10:19;;;;;;;3.83;1.90;;;;;;;;;;4981921;28;20883;-81
2023/10/14 13:12:50;;;;;;;3.25;1.70;;;;;;;;;;4988667;28;20053;-80
2023/10/14 13:15:30;;;;;;;3.58;1.17;;;;;;;;;;4988371;28;20182;-79
2023/10/14 13:17:57;;;;;;;3.85;1.63;;;;;;;;;;4986305;28;20062;-79
2023/10/14 13:20:30;;;;;;;6.00;2.17;;;;;;;;;;4981045;28;20523;-79
2023/10/14 13:23:07;;;;;;;6.22;2.03;;;;;;;;;;4978625;28;20049;-78
2023/10/14 13:25:37;;;;;;;4.25;1.60;;;;;;;;;;4981351;28;20101;-78
2023/10/14 13:28:11;;;;;;;7.97;3.10;;;;;;;;;;4980725;28;20074;-79
2023/10/14 13:30:47;;;;;;;2.88;2.13;;;;;;;;;;4981165;28;20050;-79
2023/10/14 13:33:14;;;;;;;3.53;1.88;;;;;;;;;;4981435;28;20055;-77
2023/10/14 13:35:45;;;;;;;2.55;1.83;;;;;;;;;;4981424;28;20492;-80
2023/10/14 13:38:10;;;;;;;4.90;1.50;;;;;;;;;;4982114;28;20454;-78
2023/10/14 13:40:40;;;;;;;3.65;2.10;;;;;;;;;;4982616;28;20054;-79
2023/10/14 13:43:06;;;;;;;1.88;1.55;;;;;;;;;;4986353;28;20054;-79
2023/10/14 13:45:32;;;;;;;3.08;1.48;;;;;;;;;;4986145;28;20058;-80
2023/10/14 13:48:05;;;;;;;3.13;1.52;;;;;;;;;;4969378;28;20054;-80
2023/10/14 13:50:31;;;;;;;2.03;1.83;;;;;;;;;;4986630;28;20054;-80
2023/10/14 13:52:57;;;;;;;2.33;1.65;;;;;;;;;;4968882;28;20117;-80
2023/10/14 13:55:23;;;;;;;1.80;1.50;;;;;;;;;;4985262;28;20069;-80
2023/10/14 13:57:50;;;;;;;3.00;1.40;;;;;;;;;;4986619;28;20050;-80
2023/10/14 14:03:07;;;;;;;1.48;1.25;;;;;;;;;;5000625;28;20585;-81
2023/10/14 14:05:34;;;;;;;5.50;1.20;;;;;;;;;;4986869;28;20068;-80
2023/10/14 14:08:00;;;;;;;2.22;1.50;;;;;;;;;;4986431;28;20081;-81
2023/10/14 14:10:25;;;;;;;2.65;1.20;;;;;;;;;;5001262;28;20068;-81
2023/10/14 14:12:53;;;;;;;2.47;1.20;;;;;;;;;;4985002;28;20527;-80
2023/10/14 14:15:22;;;;;;;1.83;1.40;;;;;;;;;;4984164;28;20074;-81
2023/10/14 14:17:48;;;;;;;2.67;1.13;;;;;;;;;;4983343;28;20514;-79
2023/10/14 14:20:16;;;;;;;4.80;1.00;;;;;;;;;;4992444;28;20051;-81
2023/10/14 14:22:44;;;;;;;1.88;1.63;;;;;;;;;;4986029;28;20865;-80
2023/10/14 14:25:12;;;;;;;1.40;1.30;;;;;;;;;;4985419;28;20104;-81
2023/10/14 14:27:38;;;;;;;2.05;1.00;;;;;;;;;;4983171;28;20046;-79
2023/10/14 14:30:07;;;;;;;1.95;0.90;;;;;;;;;;4967050;28;20058;-79
2023/10/14 14:32:36;;;;;;;1.85;0.95;;;;;;;;;;4999365;28;20050;-80
2023/10/14 14:35:07;;;;;;;1.27;0.82;;;;;;;;;;4984426;28;20051;-80
2023/10/14 14:37:35;;;;;;;;;;;;;;;;;;4975065;28;20061;-80
2023/10/14 14:40:14;;;;;;;2.53;1.08;;;;;;;;;;4982419;28;19925;-79
2023/10/14 14:42:48;;;;;;;3.05;1.02;;;;;;;;;;4986686;28;20046;-81
2023/10/14 14:45:15;;;;;;;1.05;0.93;;;;;;;;;;4986430;28;20057;-80
2023/10/14 14:47:41;;;;;;;1.38;1.10;;;;;;;;;;4983938;28;20042;-80
2023/10/14 14:50:08;;;;;;;1.92;1.05;;;;;;;;;;4984573;28;20130;-79
2023/10/14 14:52:36;;;;;;;5.38;1.00;;;;;;;;;;4987849;28;20053;-81
2023/10/14 14:55:03;;;;;;;0.98;0.90;;;;;;;;;;4990721;28;20093;-80
2023/10/14 14:57:31;;;;;;;2.42;1.42;;;;;;;;;;4982748;28;20054;-80
2023/10/14 14:59:56;;;;;;;1.55;1.08;;;;;;;;;;4982143;28;20673;-80
2023/10/14 15:02:22;;;;;;;2.80;1.08;;;;;;;;;;4981688;28;20049;-80
2023/10/14 15:04:48;;;;;;;1.52;0.85;;;;;;;;;;4978817;28;20113;-78
2023/10/14 15:07:14;;;;;;;1.48;1.02;;;;;;;;;;4978355;28;20057;-79
2023/10/14 15:09:41;;;;;;;1.08;0.88;;;;;;;;;;4979130;28;20438;-78
2023/10/14 15:12:07;;;;;;;3.08;0.80;;;;;;;;;;4980697;28;20614;-80
2023/10/14 15:14:38;;;;;;;2.30;0.80;;;;;;;;;;4980799;28;20050;-78
2023/10/14 15:17:11;;;;;;;1.95;0.60;;;;;;;;;;4981198;28;20108;-81
2023/10/14 15:19:37;;;;;;;5.20;0.60;;;;;;;;;;4980758;28;20113;-80